createdAt,value
2022-11-10T00:00:15.389Z,32.70
2022-11-10T00:03:15.691Z,33.78
2022-11-10T00:06:06.919Z,30.90
2022-11-10T00:08:53.348Z,33.13
2022-11-10T00:11:39.457Z,34.97
2022-11-10T00:14:43.848Z,32.25
2022-11-10T00:17:30.084Z,32.63
2022-11-10T00:20:16.508Z,30.67
2022-11-10T00:23:02.382Z,30.75
2022-11-10T00:25:48.499Z,31.95
2022-11-10T00:28:34.512Z,31.40
2022-11-10T00:31:21.437Z,30.77
2022-11-10T00:34:11.188Z,30.77
2022-11-10T00:36:57.491Z,30.02
2022-11-10T00:39:43.450Z,31.55
2022-11-10T00:42:30.002Z,29.17
2022-11-10T00:45:16.086Z,30.80
2022-11-10T00:48:02.316Z,30.63
2022-11-10T00:50:48.176Z,30.75
2022-11-10T00:53:34.407Z,31.25
2022-11-10T00:56:21.985Z,30.42
2022-11-10T00:59:08.248Z,32.97
2022-11-10T01:01:53.895Z,32.08
2022-11-10T01:04:40.092Z,33.75
2022-11-10T01:07:26.002Z,32.22
2022-11-10T01:10:12.923Z,32.25
2022-11-10T01:12:59.302Z,32.85
2022-11-10T01:15:45.470Z,31.50
2022-11-10T01:18:31.681Z,31.45
2022-11-10T01:21:20.446Z,31.85
2022-11-10T01:24:06.759Z,30.38
2022-11-10T01:26:53.026Z,32.80
2022-11-10T01:29:39.401Z,32.85
2022-11-10T01:32:25.510Z,31.00
2022-11-10T01:35:11.977Z,32.00
2022-11-10T01:37:58.863Z,33.55
2022-11-10T01:40:45.869Z,32.88
2022-11-10T01:43:33.240Z,31.40
2022-11-10T01:46:19.479Z,32.35
2022-11-10T01:49:06.838Z,31.60
2022-11-10T01:52:11.154Z,32.83
2022-11-10T01:54:57.627Z,32.65
2022-11-10T01:57:44.421Z,33.58
2022-11-10T02:00:31.000Z,32.85
2022-11-10T02:03:20.759Z,32.92
2022-11-10T02:06:08.825Z,33.75
2022-11-10T02:08:55.964Z,33.35
2022-11-10T02:11:44.024Z,33.22
2022-11-10T02:14:30.405Z,31.92
2022-11-10T02:17:17.422Z,32.72
2022-11-10T02:20:11.932Z,32.78
2022-11-10T02:22:58.110Z,31.98
2022-11-10T02:25:44.228Z,31.98
2022-11-10T02:28:35.829Z,33.08
2022-11-10T02:31:21.924Z,31.20
2022-11-10T02:34:08.317Z,34.67
2022-11-10T02:36:54.434Z,31.65
2022-11-10T02:39:40.696Z,31.83
2022-11-10T02:42:27.020Z,30.67
2022-11-10T02:45:13.338Z,31.80
2022-11-10T02:47:59.136Z,32.50
2022-11-10T02:50:45.923Z,31.92
2022-11-10T02:53:32.145Z,31.80
2022-11-10T02:56:18.344Z,31.33
2022-11-10T02:59:05.097Z,32.05
2022-11-10T03:01:51.455Z,32.15
2022-11-10T03:04:37.709Z,33.92
2022-11-10T03:07:24.347Z,32.17
2022-11-10T03:10:10.620Z,30.27
2022-11-10T03:13:01.892Z,33.33
2022-11-10T03:15:48.755Z,32.05
2022-11-10T03:18:35.021Z,33.03
2022-11-10T03:21:21.226Z,32.83
2022-11-10T03:24:08.026Z,33.08
2022-11-10T03:26:53.984Z,33.03
2022-11-10T03:29:40.743Z,31.20
2022-11-10T03:32:26.462Z,31.80
2022-11-10T03:35:12.932Z,31.42
2022-11-10T03:37:58.569Z,31.30
2022-11-10T03:41:17.027Z,31.45
2022-11-10T03:43:51.884Z,32.88
2022-11-10T03:46:40.580Z,31.27
2022-11-10T03:49:29.854Z,31.38
2022-11-10T03:52:16.802Z,33.00
2022-11-10T03:55:03.736Z,31.55
2022-11-10T03:57:50.140Z,32.08
2022-11-10T04:00:36.119Z,32.58
2022-11-10T04:03:23.929Z,31.45
2022-11-10T04:06:30.684Z,30.88
2022-11-10T04:09:17.162Z,31.65
2022-11-10T04:12:24.849Z,32.20
2022-11-10T04:15:31.574Z,31.77
2022-11-10T04:18:26.869Z,31.98
2022-11-10T04:21:13.106Z,31.98
2022-11-10T04:23:59.113Z,30.73
2022-11-10T04:26:47.547Z,32.47
2022-11-10T04:29:34.306Z,32.93
2022-11-10T04:32:20.403Z,32.90
2022-11-10T04:35:06.567Z,31.33
2022-11-10T04:37:52.793Z,32.65
2022-11-10T04:40:38.779Z,33.88
2022-11-10T04:43:25.613Z,34.28
2022-11-10T04:46:22.242Z,33.45
2022-11-10T04:49:08.711Z,32.50
2022-11-10T04:51:54.708Z,33.17
2022-11-10T04:54:41.435Z,33.55
2022-11-10T04:57:27.505Z,34.13
2022-11-10T05:00:14.812Z,32.22
2022-11-10T05:03:04.545Z,31.42
2022-11-10T05:05:51.012Z,33.85
2022-11-10T05:08:39.172Z,31.67
2022-11-10T05:11:25.976Z,32.95
2022-11-10T05:14:12.043Z,31.90
2022-11-10T05:16:58.307Z,32.47
2022-11-10T05:19:44.577Z,33.97
2022-11-10T05:22:30.700Z,33.22
2022-11-10T05:25:16.864Z,35.28
2022-11-10T05:28:04.881Z,33.05
2022-11-10T05:30:50.727Z,34.92
2022-11-10T05:33:38.049Z,32.97
2022-11-10T05:36:23.950Z,33.33
2022-11-10T05:39:10.612Z,32.33
2022-11-10T05:41:57.370Z,32.58
2022-11-10T05:44:43.799Z,33.45
2022-11-10T05:47:29.641Z,32.33
2022-11-10T05:50:17.644Z,32.92
2022-11-10T05:53:03.559Z,32.50
2022-11-10T05:55:50.140Z,32.13
2022-11-10T05:58:36.603Z,33.33
2022-11-10T06:01:23.501Z,32.72
2022-11-10T06:04:09.635Z,34.08
2022-11-10T06:06:55.877Z,33.03
2022-11-10T06:09:42.069Z,34.45
2022-11-10T06:12:31.107Z,32.40
2022-11-10T06:15:17.193Z,32.97
2022-11-10T06:18:03.687Z,36.05
2022-11-10T06:20:49.735Z,34.92
2022-11-10T06:23:35.986Z,36.65
2022-11-10T06:26:22.043Z,32.35
2022-11-10T06:29:08.178Z,32.55
2022-11-10T06:31:53.960Z,33.45
2022-11-10T06:34:40.162Z,32.88
2022-11-10T06:37:26.345Z,44.00
2022-11-10T06:40:16.670Z,48.45
2022-11-10T06:43:03.118Z,50.20
2022-11-10T06:45:49.801Z,49.95
2022-11-10T06:48:35.541Z,41.15
2022-11-10T06:51:21.574Z,40.47
2022-11-10T06:54:07.800Z,40.35
2022-11-10T06:56:53.919Z,38.97
2022-11-10T06:59:40.015Z,40.88
2022-11-10T07:02:26.245Z,39.35
2022-11-10T07:05:12.539Z,38.35
2022-11-10T07:08:06.522Z,37.80
2022-11-10T07:10:55.472Z,37.50
2022-11-10T07:13:43.143Z,35.53
2022-11-10T07:16:29.648Z,36.13
2022-11-10T07:19:15.969Z,36.90
2022-11-10T07:22:06.642Z,42.25
2022-11-10T07:24:55.939Z,39.63
2022-11-10T07:27:42.057Z,33.17
2022-11-10T07:30:30.433Z,34.03
2022-11-10T07:33:16.612Z,32.67
2022-11-10T07:36:04.624Z,32.72
2022-11-10T07:38:50.776Z,33.80
2022-11-10T07:41:37.004Z,29.00
2022-11-10T07:44:22.800Z,30.73
2022-11-10T07:47:08.938Z,27.80
2022-11-10T07:49:55.135Z,35.47
2022-11-10T07:52:41.210Z,36.78
2022-11-10T07:55:27.610Z,38.15
2022-11-10T07:58:18.070Z,37.88
2022-11-10T08:01:04.219Z,39.53
2022-11-10T08:03:51.697Z,38.20
2022-11-10T08:06:38.095Z,37.38
2022-11-10T08:09:24.773Z,37.78
2022-11-10T08:12:11.160Z,34.72
2022-11-10T08:14:57.295Z,35.65
2022-11-10T08:17:43.114Z,38.45
2022-11-10T08:20:29.911Z,34.88
2022-11-10T08:23:17.805Z,37.90
2022-11-10T08:26:04.470Z,38.38
2022-11-10T08:28:50.556Z,41.22
2022-11-10T08:31:38.275Z,38.63
2022-11-10T08:34:24.354Z,40.25
2022-11-10T08:37:10.606Z,39.08
2022-11-10T08:39:56.522Z,39.05
2022-11-10T08:42:42.867Z,40.67
2022-11-10T08:45:29.404Z,39.85
2022-11-10T08:48:19.068Z,39.10
2022-11-10T08:53:51.304Z,38.38
2022-11-10T08:56:37.307Z,43.28
2022-11-10T08:59:23.654Z,44.63
2022-11-10T09:02:10.801Z,42.10
2022-11-10T09:04:57.149Z,44.80
2022-11-10T09:07:48.005Z,44.50
2022-11-10T09:10:37.861Z,44.75
2022-11-10T09:13:29.446Z,45.80
2022-11-10T09:16:16.931Z,43.85
2022-11-10T09:19:03.028Z,45.25
2022-11-10T09:21:49.304Z,44.85
2022-11-10T09:24:35.308Z,42.28
2022-11-10T09:27:21.813Z,44.05
2022-11-10T09:30:11.815Z,41.20
2022-11-10T09:33:03.613Z,41.58
2022-11-10T09:35:49.661Z,38.45
2022-11-10T09:38:36.011Z,38.70
2022-11-10T09:41:22.227Z,38.40
2022-11-10T09:44:30.897Z,38.08
2022-11-10T09:50:46.746Z,37.72
2022-11-10T09:54:06.234Z,38.15
2022-11-10T09:59:44.282Z,36.60
2022-11-10T10:02:56.207Z,34.85
2022-11-10T10:05:54.029Z,35.92
2022-11-10T10:09:24.564Z,34.47
2022-11-10T10:12:37.517Z,33.50
2022-11-10T10:15:42.520Z,33.00
2022-11-10T10:19:13.520Z,33.22
2022-11-10T10:22:23.652Z,32.83
2022-11-10T10:25:22.104Z,30.42
2022-11-10T10:28:27.472Z,31.75
2022-11-10T10:31:27.395Z,31.38
2022-11-10T10:34:17.503Z,30.13
2022-11-10T10:37:03.672Z,29.85
2022-11-10T10:39:55.228Z,30.13
2022-11-10T10:42:41.228Z,32.38
2022-11-10T10:45:29.891Z,31.50
2022-11-10T10:48:31.031Z,29.87
2022-11-10T10:51:30.652Z,29.00
2022-11-10T10:54:29.736Z,30.33
2022-11-10T10:57:32.195Z,29.48
2022-11-10T11:00:19.922Z,28.90
2022-11-10T11:03:25.182Z,28.33
2022-11-10T11:06:14.934Z,28.73
2022-11-10T11:09:20.089Z,28.27
2022-11-10T11:12:25.569Z,22.85
2022-11-10T11:15:30.602Z,28.23
2022-11-10T11:18:20.805Z,28.15
2022-11-10T11:21:13.097Z,28.98
2022-11-10T11:24:30.414Z,25.08
2022-11-10T11:27:46.072Z,30.35
2022-11-10T11:30:53.963Z,31.58
2022-11-10T11:34:13.895Z,33.97
2022-11-10T11:37:37.139Z,33.75
2022-11-10T11:41:08.014Z,31.35
2022-11-10T11:44:00.759Z,31.00
2022-11-10T11:47:30.422Z,32.63
2022-11-10T11:50:43.927Z,32.17
2022-11-10T11:53:37.110Z,32.50
2022-11-10T11:56:27.552Z,31.33
2022-11-10T11:59:56.567Z,32.92
2022-11-10T12:02:56.212Z,32.80
2022-11-10T12:06:07.252Z,29.67
2022-11-10T12:09:39.773Z,29.63
2022-11-10T12:13:07.211Z,28.52
2022-11-10T12:16:18.052Z,29.27
2022-11-10T12:19:23.417Z,25.90
2022-11-10T12:22:41.573Z,25.52
2022-11-10T12:25:49.522Z,25.52
2022-11-10T12:29:05.231Z,26.05
2022-11-10T12:31:58.837Z,27.00
2022-11-10T12:34:52.384Z,25.52
2022-11-10T12:37:53.180Z,25.88
2022-11-10T12:41:04.976Z,26.48
2022-11-10T12:45:02.180Z,25.67
2022-11-10T12:47:49.579Z,26.45
2022-11-10T12:50:59.862Z,23.52
2022-11-10T12:53:47.911Z,26.65
2022-11-10T12:57:07.014Z,27.35
2022-11-10T13:00:28.071Z,25.55
2022-11-10T13:03:31.679Z,28.38
2022-11-10T13:06:40.351Z,30.52
2022-11-10T13:09:33.911Z,29.00
2022-11-10T13:12:23.389Z,30.17
2022-11-10T13:15:37.674Z,30.15
2022-11-10T13:18:32.608Z,30.08
2022-11-10T13:21:39.258Z,29.05
2022-11-10T13:24:29.966Z,30.63
2022-11-10T13:27:38.024Z,30.23
2022-11-10T13:30:52.726Z,30.75
2022-11-10T13:33:39.499Z,32.03
2022-11-10T13:36:48.003Z,28.98
2022-11-10T13:39:37.180Z,29.45
2022-11-10T13:45:42.266Z,29.80
2022-11-10T13:49:16.362Z,31.02
2022-11-10T13:52:20.625Z,30.00
2022-11-10T13:55:20.814Z,28.58
2022-11-10T13:58:40.296Z,25.63
2022-11-10T14:01:30.615Z,28.02
2022-11-10T14:04:40.619Z,27.95
2022-11-10T14:10:45.391Z,22.02
2022-11-10T14:13:43.872Z,20.45
2022-11-10T14:16:33.148Z,17.92
2022-11-10T14:19:45.681Z,18.92
2022-11-10T14:22:43.160Z,17.77
2022-11-10T14:25:39.696Z,16.55
2022-11-10T14:28:34.354Z,15.10
2022-11-10T14:31:24.314Z,16.08
2022-11-10T14:34:18.570Z,15.52
2022-11-10T14:37:05.169Z,16.77
2022-11-10T14:39:55.659Z,17.83
2022-11-10T14:42:41.326Z,17.80
2022-11-10T14:45:28.698Z,19.65
2022-11-10T14:48:24.876Z,20.80
2022-11-10T14:51:19.121Z,19.85
2022-11-10T14:54:07.247Z,24.50
2022-11-10T14:56:56.304Z,24.60
2022-11-10T14:59:42.294Z,29.27
2022-11-10T15:02:29.627Z,28.27
2022-11-10T15:05:16.480Z,30.40
2022-11-10T15:08:04.717Z,31.92
2022-11-10T15:10:58.817Z,31.63
2022-11-10T15:13:45.005Z,32.50
2022-11-10T15:16:38.703Z,33.28
2022-11-10T15:19:30.448Z,32.65
2022-11-10T15:22:35.099Z,34.65
2022-11-10T15:25:32.847Z,38.50
2022-11-10T15:28:35.373Z,38.08
2022-11-10T15:31:31.635Z,40.40
2022-11-10T15:34:45.471Z,39.67
2022-11-10T15:37:32.244Z,39.58
2022-11-10T15:40:44.542Z,39.00
2022-11-10T15:43:30.832Z,38.28
2022-11-10T15:46:24.459Z,38.30
2022-11-10T15:49:26.111Z,37.90
2022-11-10T15:52:17.460Z,36.63
2022-11-10T15:55:06.716Z,36.42
2022-11-10T15:57:53.178Z,38.78
2022-11-10T16:00:39.638Z,36.50
2022-11-10T16:03:25.787Z,36.60
2022-11-10T16:06:16.508Z,38.10
2022-11-10T16:09:02.549Z,36.78
2022-11-10T16:11:49.306Z,37.17
2022-11-10T16:14:35.506Z,38.97
2022-11-10T16:17:22.152Z,37.78
2022-11-10T16:20:15.083Z,37.63
2022-11-10T16:23:01.143Z,39.20
2022-11-10T16:25:51.476Z,38.13
2022-11-10T16:28:38.030Z,42.03
2022-11-10T16:31:26.089Z,42.30
2022-11-10T16:34:14.938Z,46.80
2022-11-10T16:37:01.336Z,40.97
2022-11-10T16:39:47.429Z,42.33
2022-11-10T16:42:33.959Z,43.10
2022-11-10T16:45:30.149Z,39.35
2022-11-10T16:48:21.940Z,40.00
2022-11-10T16:51:08.920Z,34.33
2022-11-10T16:53:54.736Z,36.08
2022-11-10T16:56:40.869Z,31.85
2022-11-10T16:59:27.026Z,31.65
2022-11-10T17:02:33.722Z,32.47
2022-11-10T17:05:19.553Z,35.33
2022-11-10T17:08:06.973Z,32.95
2022-11-10T17:10:56.781Z,36.30
2022-11-10T17:13:43.025Z,36.70
2022-11-10T17:16:34.612Z,36.70
2022-11-10T17:19:26.480Z,38.35
2022-11-10T17:22:21.437Z,40.38
2022-11-10T17:25:25.000Z,36.10
2022-11-10T17:28:17.751Z,40.15
2022-11-10T17:31:04.537Z,38.17
2022-11-10T17:33:50.666Z,38.55
2022-11-10T17:36:37.257Z,39.90
2022-11-10T17:39:23.401Z,40.25
2022-11-10T17:42:15.594Z,39.42
2022-11-10T17:45:01.223Z,38.00
2022-11-10T17:47:49.493Z,38.88
2022-11-10T17:50:38.160Z,38.13
2022-11-10T17:53:28.378Z,37.97
2022-11-10T17:56:14.793Z,40.55
2022-11-10T17:59:01.772Z,37.05
2022-11-10T18:01:48.172Z,36.63
2022-11-10T18:04:34.480Z,38.53
2022-11-10T18:07:20.513Z,38.67
2022-11-10T18:10:13.042Z,38.05
2022-11-10T18:12:59.990Z,42.00
2022-11-10T18:15:48.143Z,45.33
2022-11-10T18:18:34.865Z,49.58
2022-11-10T18:21:21.778Z,50.78
2022-11-10T18:24:08.606Z,49.72
2022-11-10T18:26:54.965Z,49.25
2022-11-10T18:29:41.053Z,47.90
2022-11-10T18:32:27.904Z,47.50
2022-11-10T18:35:14.929Z,44.17
2022-11-10T18:38:01.538Z,41.00
2022-11-10T18:40:48.797Z,41.92
2022-11-10T18:43:35.120Z,36.35
2022-11-10T18:46:21.351Z,30.75
2022-11-10T18:49:07.884Z,30.63
2022-11-10T18:51:53.864Z,29.13
2022-11-10T18:54:40.192Z,29.17
2022-11-10T18:57:26.957Z,29.10
2022-11-10T19:00:14.869Z,30.48
2022-11-10T19:03:00.757Z,29.02
2022-11-10T19:05:55.660Z,28.40
2022-11-10T19:08:45.120Z,27.58
2022-11-10T19:11:34.064Z,26.25
2022-11-10T19:14:20.360Z,27.38
2022-11-10T19:17:07.115Z,27.98
2022-11-10T19:19:56.422Z,27.73
2022-11-10T19:22:43.609Z,28.70
2022-11-10T19:25:29.774Z,30.42
2022-11-10T19:28:16.481Z,29.38
2022-11-10T19:31:14.781Z,29.23
2022-11-10T19:34:01.153Z,29.60
2022-11-10T19:36:49.141Z,31.30
2022-11-10T19:39:35.271Z,29.45
2022-11-10T19:42:21.324Z,28.58
2022-11-10T19:45:09.455Z,28.65
2022-11-10T19:47:57.271Z,26.48
2022-11-10T19:50:49.144Z,27.80
2022-11-10T19:53:35.874Z,26.83
2022-11-10T19:56:26.241Z,27.98
2022-11-10T19:59:15.406Z,28.20
2022-11-10T20:02:01.802Z,27.60
2022-11-10T20:05:07.357Z,27.60
2022-11-10T20:08:11.915Z,28.23
2022-11-10T20:11:17.162Z,27.85
2022-11-10T20:14:05.621Z,27.70
2022-11-10T20:16:52.515Z,25.70
2022-11-10T20:23:12.229Z,27.65
2022-11-10T20:26:14.313Z,26.85
2022-11-10T20:29:00.520Z,30.13
2022-11-10T20:31:46.683Z,25.90
2022-11-10T20:34:32.739Z,27.73
2022-11-10T20:37:19.595Z,31.33
2022-11-10T20:40:30.352Z,28.33
2022-11-10T20:43:18.591Z,26.85
2022-11-10T20:46:06.730Z,26.75
2022-11-10T20:48:53.340Z,28.23
2022-11-10T20:51:40.300Z,29.08
2022-11-10T20:54:27.765Z,28.80
2022-11-10T20:57:13.578Z,28.58
2022-11-10T21:00:00.523Z,27.10
2022-11-10T21:02:47.618Z,27.33
2022-11-10T21:06:11.408Z,28.85
2022-11-10T21:09:24.781Z,25.65
2022-11-10T21:12:44.212Z,27.42
2022-11-10T21:15:55.477Z,27.40
2022-11-10T21:19:06.123Z,27.08
2022-11-10T21:22:02.741Z,26.40
2022-11-10T21:25:53.669Z,26.90
2022-11-10T21:28:40.640Z,26.40
2022-11-10T21:31:27.720Z,29.58
2022-11-10T21:34:39.178Z,28.67
2022-11-10T21:37:25.912Z,27.70
2022-11-10T21:40:14.473Z,27.33
2022-11-10T21:43:01.972Z,27.05
2022-11-10T21:46:25.155Z,27.02
2022-11-10T21:53:33.247Z,28.70
2022-11-10T22:00:35.071Z,28.60
2022-11-10T22:03:38.540Z,28.98
2022-11-10T22:06:54.284Z,26.77
2022-11-10T22:10:15.216Z,29.45
2022-11-10T22:13:56.176Z,29.17
2022-11-10T22:17:48.019Z,27.33
2022-11-10T22:20:54.349Z,27.70
2022-11-10T22:28:14.001Z,27.63
2022-11-10T22:31:11.777Z,26.95
2022-11-10T22:34:08.154Z,27.33
2022-11-10T22:37:13.483Z,27.17
2022-11-10T22:44:04.919Z,26.30
2022-11-10T22:48:34.625Z,27.05
2022-11-10T22:51:37.730Z,28.05
2022-11-10T22:54:52.774Z,27.52
2022-11-10T22:57:39.854Z,27.15
2022-11-10T23:00:26.620Z,27.65
2022-11-10T23:03:14.232Z,28.15
2022-11-10T23:06:15.280Z,29.95
2022-11-10T23:09:13.426Z,29.63
2022-11-10T23:12:14.699Z,29.58
2022-11-10T23:15:22.091Z,30.75
2022-11-10T23:18:58.310Z,29.45
2022-11-10T23:21:48.045Z,30.13
2022-11-10T23:24:43.153Z,28.80
2022-11-10T23:27:39.803Z,27.52
2022-11-10T23:31:26.989Z,29.55
2022-11-10T23:34:26.293Z,30.17
2022-11-10T23:37:20.608Z,28.95
2022-11-10T23:40:15.936Z,30.55
2022-11-10T23:43:11.260Z,31.33
2022-11-10T23:46:08.096Z,27.25
2022-11-10T23:48:54.634Z,26.25
2022-11-10T23:51:40.996Z,26.80
2022-11-10T23:54:26.984Z,26.42
2022-11-10T23:57:13.123Z,27.48
2022-11-10T23:59:59.356Z,24.70
